Kezdőlap
METAR-TAF:

METAR-TAF

Repülőterek :

Los Ángeles, Chile

földrajzi szélesség: 37-24-07S, földrajzi hosszúság: 072-25-32W, magasság: 114 m

Jelenlegi meteorológiai megfigyelések

A jelentés 16 perccel ezelõtt készült, 17:00 UTC
Dél-délnyugati szél 16 kt
Hőmérséklet 12°C
Páratartalom 54%
Légköri nyomás 1025 hPa
Látótávolság 10 km, vagy több
felhőtlen 1500 m magasságban, és nincs gomolyfelhõ

METAR: SCGE 191700Z 20016KT CAVOK 12/03 Q1025

Idő: 14:16 (17:16 UTC)


TAF: hiányzik

Meteorológiai megfigyelések és előrejelzések több, mint 4000 repülőtéren (METAR és TAF jelentéseket).

A térképen piros és sárga pontok jelzik az elérhető meteorológiai állomásokat.

Mozgassa az egeret a pont fölött, hogy megjelenjen az állomás neve.

Azután kattintson az időjárási megfigyelések és előrejelzések megtekintéséhez.

A térkép megváltoztatása: kattintson a fekete keresztel jelölt zöld gombra ráközelítéshez, a vonallal jelölt zöld gombra távolításhoz, vagy a zöld nyilakra a szomszédos térképek eléréséhez.


METAR-TAF: